Time;durP1;ratioP1;P1;durP2;ratioP2;P2;SDS_P1;SDS_P2;PMS_P1;PMS_P2;Temp;Humidity;BMP_temperature;BMP_pressure;BME280_temperature;BME280_humidity;BME280_pressure;Samples;Min_cycle;Max_cycle;Signal;HPM_P1;HPM_P2
2021/04/17 00:02:35;;;;;;;4.20;3.90;;;;;;;-1.67;100.00;101338.84;5111632;28;20059;-78
2021/04/17 00:05:38;;;;;;;3.85;3.60;;;;;;;-1.68;100.00;101340.03;5111838;28;20063;-78
2021/04/17 00:08:42;;;;;;;10.40;3.47;;;;;;;-1.70;100.00;101331.41;5111130;28;21251;-78
2021/04/17 00:11:46;;;;;;;2.95;2.78;;;;;;;-1.72;100.00;101339.16;5111069;28;20056;-79
2021/04/17 00:14:51;;;;;;;3.05;2.80;;;;;;;-1.75;100.00;101339.84;5111431;28;20689;-78
2021/04/17 00:17:54;;;;;;;8.38;3.03;;;;;;;-1.74;100.00;101335.19;5111288;28;20063;-78
2021/04/17 00:20:58;;;;;;;4.18;2.65;;;;;;;-1.76;100.00;101338.28;5111210;28;20062;-78
2021/04/17 00:24:02;;;;;;;3.47;3.25;;;;;;;-1.77;100.00;101335.91;5097867;28;20074;-78
2021/04/17 00:27:07;;;;;;;3.97;3.25;;;;;;;-1.80;100.00;101337.41;5111225;28;20066;-78
2021/04/17 00:30:11;;;;;;;3.55;3.33;;;;;;;-1.84;100.00;101341.22;5110618;28;20070;-78
2021/04/17 00:33:14;;;;;;;2.92;2.72;;;;;;;-1.88;100.00;101335.66;5110097;28;20051;-77
2021/04/17 00:36:18;;;;;;;3.17;2.92;;;;;;;-1.90;100.00;101337.16;5110255;28;20070;-79
2021/04/17 00:39:23;;;;;;;2.40;2.30;;;;;;;-1.93;100.00;101344.16;5111066;28;20059;-78
2021/04/17 00:42:26;;;;;;;2.00;2.00;;;;;;;-2.01;100.00;101336.91;5109530;28;20137;-77
2021/04/17 00:45:30;;;;;;;3.13;2.90;;;;;;;-2.05;100.00;101341.50;5109826;28;20059;-78
2021/04/17 00:48:34;;;;;;;2.78;2.58;;;;;;;-2.08;100.00;101342.19;5110955;28;20516;-76
2021/04/17 00:51:38;;;;;;;2.85;2.75;;;;;;;-2.09;100.00;101346.09;5110988;28;20070;-78
2021/04/17 00:54:42;;;;;;;4.95;3.58;;;;;;;-2.13;100.00;101339.75;5110620;28;20070;-78
2021/04/17 00:57:46;;;;;;;2.83;2.63;;;;;;;-2.15;100.00;101341.25;5110331;28;20555;-78
2021/04/17 01:00:49;;;;;;;12.80;3.35;;;;;;;-2.19;100.00;101338.44;5110557;28;20413;-78
2021/04/17 01:04:11;;;;;;;3.05;2.90;;;;;;;-2.23;100.00;101343.00;5110600;28;20047;-76
2021/04/17 01:07:27;;;;;;;4.70;3.50;;;;;;;-2.23;100.00;101331.31;5110233;28;20062;-76
2021/04/17 01:10:51;;;;;;;2.60;2.50;;;;;;;-2.30;100.00;101323.75;5109302;28;20054;-75
2021/04/17 01:13:56;;;;;;;6.78;3.13;;;;;;;-2.31;100.00;101333.06;5109928;28;20099;-74
2021/04/17 01:17:01;;;;;;;4.80;2.83;;;;;;;-2.34;100.00;101334.56;5110453;28;20145;-75
2021/04/17 01:20:33;;;;;;;2.80;2.70;;;;;;;-2.34;100.00;101333.78;5097600;28;20055;-75
2021/04/17 01:23:41;;;;;;;5.25;2.60;;;;;;;-2.38;100.00;101327.44;5110023;28;20067;-75
2021/04/17 01:26:45;;;;;;;3.75;3.45;;;;;;;-2.40;100.00;101332.44;5110067;28;20066;-76
2021/04/17 01:29:49;;;;;;;8.15;2.90;;;;;;;-2.40;100.00;101327.00;5110254;28;20055;-76
2021/04/17 01:32:53;;;;;;;2.95;2.70;;;;;;;-2.42;100.00;101332.00;5109075;28;20082;-75
2021/04/17 01:35:58;;;;;;;3.58;3.38;;;;;;;-2.41;100.00;101333.63;5110198;28;20058;-75
2021/04/17 01:39:02;;;;;;;3.78;2.70;;;;;;;-2.41;100.00;101344.53;5109944;28;20059;-75
2021/04/17 01:42:08;;;;;;;3.00;2.88;;;;;;;-2.43;100.00;101336.69;5097571;28;20055;-75
2021/04/17 01:45:17;;;;;;;3.05;2.78;;;;;;;-2.45;100.00;101343.66;5109998;28;20520;-75
2021/04/17 01:48:22;;;;;;;4.90;2.83;;;;;;;-2.48;100.00;101341.59;5109167;28;20058;-75
2021/04/17 01:51:27;;;;;;;6.32;3.97;;;;;;;-2.50;100.00;101343.91;5110035;28;20421;-75
2021/04/17 01:54:40;;;;;;;3.70;3.50;;;;;;;-2.49;100.00;101340.03;5110053;28;20055;-77
2021/04/17 01:57:45;;;;;;;9.02;2.80;;;;;;;-2.50;100.00;101336.50;5100456;28;20066;-77
2021/04/17 02:00:51;;;;;;;7.93;3.05;;;;;;;-2.52;100.00;101338.81;5113903;28;20062;-77
2021/04/17 02:03:55;;;;;;;2.55;2.35;;;;;;;-2.57;100.00;101335.53;5113772;28;20501;-76
2021/04/17 02:06:58;;;;;;;4.05;3.70;;;;;;;-2.59;100.00;101335.88;5113604;28;20063;-76
2021/04/17 02:10:05;;;;;;;2.20;2.20;;;;;;;-2.67;100.00;101334.13;5113251;28;20075;-77
2021/04/17 02:13:08;;;;;;;3.13;3.00;;;;;;;-2.69;100.00;101339.13;5113653;28;20057;-76
2021/04/17 02:16:35;;;;;;;4.10;3.75;;;;;;;-2.74;100.00;101333.13;5113978;28;20054;-77
2021/04/17 02:19:50;;;;;;;2.50;2.40;;;;;;;-2.75;100.00;101334.28;5113154;28;20066;-77
2021/04/17 02:22:54;;;;;;;2.67;2.58;;;;;;;-2.74;100.00;101341.31;5113548;28;20054;-78
2021/04/17 02:25:59;;;;;;;3.20;2.92;;;;;;;-2.73;100.00;101335.50;5113623;28;20408;-77
2021/04/17 02:29:04;;;;;;;6.93;2.58;;;;;;;-2.76;100.00;101332.69;5113565;28;20059;-76
2021/04/17 02:32:15;;;;;;;2.30;2.20;;;;;;;-2.80;100.00;101338.06;5101017;28;20074;-77
2021/04/17 02:35:19;;;;;;;3.90;3.60;;;;;;;-2.83;100.00;101327.06;5111385;28;20055;-77
2021/04/17 02:38:23;;;;;;;3.50;3.30;;;;;;;-2.84;100.00;101333.66;5112963;28;20058;-77
2021/04/17 02:41:27;;;;;;;3.40;3.00;;;;;;;-2.89;100.00;101333.91;5112999;28;20421;-76
2021/04/17 02:44:30;;;;;;;3.17;3.08;;;;;;;-2.91;100.00;101330.75;5112532;28;20066;-79
2021/04/17 02:47:34;;;;;;;3.00;2.80;;;;;;;-2.94;100.00;101329.50;5112455;28;20059;-77
2021/04/17 02:50:37;;;;;;;2.28;2.28;;;;;;;-2.95;100.00;101330.66;5112984;28;20058;-77
2021/04/17 02:53:42;;;;;;;3.65;3.35;;;;;;;-2.94;100.00;101325.97;5113325;28;20070;-76
2021/04/17 02:56:46;;;;;;;2.40;2.35;;;;;;;-2.98;100.00;101320.44;5112698;28;20424;-76
2021/04/17 02:59:49;;;;;;;2.97;2.78;;;;;;;-3.01;100.00;101325.81;5113091;28;20512;-77
2021/04/17 03:02:52;;;;;;;2.75;2.55;;;;;;;-3.04;100.00;101318.31;5112922;28;20058;-77
2021/04/17 03:05:56;;;;;;;2.63;2.53;;;;;;;-3.08;100.00;101321.75;5112817;28;20051;-76
2021/04/17 03:09:00;;;;;;;2.92;2.83;;;;;;;-3.10;100.00;101329.44;5112077;28;20070;-77
2021/04/17 03:12:04;;;;;;;3.03;2.88;;;;;;;-3.08;100.00;101332.66;5112668;28;20059;-77
2021/04/17 03:15:08;;;;;;;8.73;4.30;;;;;;;-3.08;100.00;101329.94;5100079;28;20055;-77
2021/04/17 03:18:12;;;;;;;3.30;3.08;;;;;;;-3.11;100.00;101325.16;5112514;28;20063;-77
2021/04/17 03:21:15;;;;;;;5.85;2.83;;;;;;;-3.11;100.00;101327.88;5111637;28;20520;-77
2021/04/17 03:24:18;;;;;;;3.83;3.55;;;;;;;-3.15;100.00;101321.56;5111177;28;20059;-77
2021/04/17 03:27:22;;;;;;;2.65;2.45;;;;;;;-3.15;100.00;101321.56;5112584;28;20059;-77
2021/04/17 03:30:29;;;;;;;2.50;2.40;;;;;;;-3.19;100.00;101317.94;5112488;28;20070;-77
2021/04/17 03:33:32;;;;;;;4.20;3.80;;;;;;;-3.20;100.00;101319.06;5111998;28;20401;-77
2021/04/17 03:36:36;;;;;;;6.03;2.63;;;;;;;-3.25;100.00;101313.84;5112447;28;20059;-76
2021/04/17 03:39:39;;;;;;;6.88;2.90;;;;;;;-3.23;100.00;101319.75;5099922;28;20059;-77
2021/04/17 03:42:43;;;;;;;7.47;3.55;;;;;;;-3.26;100.00;101317.75;5111989;28;20067;-77
2021/04/17 03:45:46;;;;;;;4.10;3.53;;;;;;;-3.32;100.00;101316.41;5091908;28;20414;-77
2021/04/17 03:48:49;;;;;;;2.85;2.75;;;;;;;-3.35;100.00;101314.38;5091402;28;20063;-77
2021/04/17 03:51:53;;;;;;;3.20;2.15;;;;;;;-3.39;100.00;101310.75;5091753;28;20052;-77
2021/04/17 03:54:56;;;;;;;3.53;2.97;;;;;;;-3.44;100.00;101313.72;5091502;28;20413;-76
2021/04/17 03:57:59;;;;;;;2.50;2.40;;;;;;;-3.41;100.00;101320.41;5091026;28;20524;-76
2021/04/17 04:01:02;;;;;;;3.03;2.90;;;;;;;-3.44;100.00;101312.91;5091617;28;20063;-77
2021/04/17 04:04:06;;;;;;;2.67;2.58;;;;;;;-3.46;100.00;101316.00;5091345;28;20520;-76
2021/04/17 04:07:09;;;;;;;15.70;2.97;;;;;;;-3.48;100.00;101317.47;5091374;28;20059;-76
2021/04/17 04:10:13;;;;;;;2.42;2.33;;;;;;;-3.52;100.00;101317.38;5091451;28;20413;-77
2021/04/17 04:13:17;;;;;;;1.80;1.80;;;;;;;-3.53;100.00;101312.28;5089823;28;20059;-76
2021/04/17 04:16:21;;;;;;;2.53;2.50;;;;;;;-3.56;100.00;101307.53;5090458;28;20051;-76
2021/04/17 04:19:24;;;;;;;5.47;2.63;;;;;;;-3.59;100.00;101310.91;5090320;28;20540;-76
2021/04/17 04:22:28;;;;;;;3.05;2.70;;;;;;;-3.62;100.00;101312.44;5090381;28;20048;-77
2021/04/17 04:25:32;;;;;;;3.05;2.90;;;;;;;-3.61;100.00;101311.28;5090192;28;20071;-76
2021/04/17 04:28:36;;;;;;;6.35;3.15;;;;;;;-3.63;100.00;101310.81;5090115;28;20075;-77
2021/04/17 04:31:39;;;;;;;3.45;3.13;;;;;;;-3.62;100.00;101319.78;5090075;28;20448;-76
2021/04/17 04:34:43;;;;;;;3.58;3.28;;;;;;;-3.62;100.00;101317.06;5090117;28;20110;-76
2021/04/17 04:37:46;;;;;;;2.40;2.28;;;;;;;-3.66;100.00;101316.94;5090392;28;20067;-77
2021/04/17 04:40:50;;;;;;;4.53;3.67;;;;;;;-3.70;100.00;101316.06;5090359;28;20063;-76
2021/04/17 04:43:53;;;;;;;8.27;3.95;;;;;;;-3.72;100.00;101328.41;5095630;28;20050;-76
2021/04/17 04:46:57;;;;;;;2.65;2.55;;;;;;;-3.70;100.00;101320.72;5111103;28;20697;-77
2021/04/17 04:50:00;;;;;;;4.72;4.13;;;;;;;-3.73;100.00;101316.75;5110972;28;20063;-76
2021/04/17 04:53:04;;;;;;;6.75;3.70;;;;;;;-3.76;100.00;101322.06;5110588;28;20055;-77
2021/04/17 04:56:07;;;;;;;2.42;2.22;;;;;;;-3.82;100.00;101318.81;5110539;28;20067;-77
2021/04/17 04:59:11;;;;;;;3.42;2.83;;;;;;;-3.85;100.00;101319.47;5110272;28;20531;-77
2021/04/17 05:02:14;;;;;;;3.13;3.03;;;;;;;-3.83;100.00;101319.16;5110637;28;20074;-77
2021/04/17 05:05:17;;;;;;;5.55;2.80;;;;;;;-3.85;100.00;101320.28;5110249;28;20107;-76
2021/04/17 05:08:21;;;;;;;3.35;3.15;;;;;;;-3.83;100.00;101319.94;5110758;28;20070;-77
2021/04/17 05:11:24;;;;;;;4.68;3.13;;;;;;;-3.84;100.00;101321.09;5110635;28;20067;-77
2021/04/17 05:14:28;;;;;;;3.35;3.25;;;;;;;-3.85;100.00;101322.19;5110547;28;20527;-77
2021/04/17 05:17:32;;;;;;;3.90;3.58;;;;;;;-3.81;100.00;101319.59;5110360;28;20555;-77
2021/04/17 05:20:35;;;;;;;2.88;2.78;;;;;;;-3.82;100.00;101326.97;5110759;28;20059;-78
2021/04/17 05:23:39;;;;;;;5.07;2.88;;;;;;;-3.79;100.00;101331.75;5110538;28;20512;-78
2021/04/17 05:26:43;;;;;;;4.18;3.92;;;;;;;-3.79;100.00;101331.75;5110372;28;20066;-80
2021/04/17 05:29:46;;;;;;;2.13;2.03;;;;;;;-3.79;100.00;101323.56;5096585;28;20054;-76
2021/04/17 05:32:50;;;;;;;2.53;2.42;;;;;;;-3.76;100.00;101322.06;5108214;28;20066;-77
2021/04/17 05:35:54;;;;;;;4.47;3.08;;;;;;;-3.72;100.00;101318.31;5109335;28;20173;-77
2021/04/17 05:38:57;;;;;;;3.08;2.97;;;;;;;-3.67;100.00;101320.81;5109070;28;20066;-78
2021/04/17 05:42:00;;;;;;;5.25;2.78;;;;;;;-3.65;100.00;101318.53;5109467;28;20059;-77
2021/04/17 05:45:05;;;;;;;2.58;2.47;;;;;;;-3.57;100.00;101319.56;5096622;28;20524;-77
2021/04/17 05:48:08;;;;;;;11.57;3.00;;;;;;;-3.55;100.00;101314.56;5109528;28;20063;-77
2021/04/17 05:51:12;;;;;;;3.10;2.75;;;;;;;-3.49;100.00;101313.97;5109429;28;20052;-77
2021/04/17 05:54:17;;;;;;;4.53;2.85;;;;;;;-3.44;100.00;101318.34;5109302;28;20117;-77
2021/04/17 05:57:20;;;;;;;5.03;4.63;;;;;;;-3.40;100.00;101314.59;5101588;28;20055;-77
2021/04/17 06:00:24;;;;;;;3.17;2.97;;;;;;;-3.36;100.00;101312.78;5107140;28;20512;-77
2021/04/17 06:03:28;;;;;;;2.53;2.42;;;;;;;-3.32;100.00;101313.69;5106407;28;20059;-77
2021/04/17 06:06:32;;;;;;;35.72;3.55;;;;;;;-3.26;100.00;101319.66;5107720;28;20058;-78
2021/04/17 06:09:35;;;;;;;17.98;3.42;;;;;;;-3.22;100.00;101310.44;5106491;28;20052;-77
2021/04/17 06:12:39;;;;;;;4.00;3.63;;;;;;;-3.11;100.00;101318.91;5109189;28;20056;-77
2021/04/17 06:15:42;;;;;;;5.47;1.85;;;;;;;-3.02;100.00;101316.03;5109017;28;20493;-77
2021/04/17 06:18:46;;;;;;;3.90;2.92;;;;;;;-2.95;100.00;101313.50;5109032;28;20067;-78
2021/04/17 06:21:49;;;;;;;6.28;3.92;;;;;;;-2.88;100.00;101313.69;5108459;28;20055;-77
2021/04/17 06:24:53;;;;;;;2.97;2.75;;;;;;;-2.79;100.00;101314.31;5108947;28;20051;-78
2021/04/17 06:27:56;;;;;;;4.35;2.28;;;;;;;-2.69;100.00;101311.88;5108603;28;20055;-78
2021/04/17 06:30:59;;;;;;;2.60;2.40;;;;;;;-2.58;100.00;101318.41;5108962;28;20058;-78
2021/04/17 06:34:02;;;;;;;5.13;2.58;;;;;;;-2.47;100.00;101318.66;5108232;28;20317;-78
2021/04/17 06:37:06;;;;;;;3.72;3.42;;;;;;;-2.36;100.00;101314.25;5108450;28;20054;-78
2021/04/17 06:40:10;;;;;;;3.30;3.05;;;;;;;-2.26;100.00;101313.72;5108272;28;20060;-78
2021/04/17 06:43:15;;;;;;;3.33;3.13;;;;;;;-2.16;100.00;101310.44;5092242;28;20059;-78
2021/04/17 06:46:19;;;;;;;5.43;3.88;;;;;;;-2.05;100.00;101308.75;5093075;28;20054;-78
2021/04/17 06:49:25;;;;;;;4.45;2.83;;;;;;;-1.88;100.00;101307.56;5111304;28;20070;-78
2021/04/17 06:52:29;;;;;;;2.83;2.63;;;;;;;-1.69;100.00;101305.66;5112121;28;20067;-78
2021/04/17 06:55:33;;;;;;;4.10;3.58;;;;;;;-1.52;100.00;101306.41;5112214;28;20074;-78
2021/04/17 06:58:40;;;;;;;5.32;3.65;;;;;;;-1.41;100.00;101304.69;5112432;28;20612;-79
2021/04/17 07:01:44;;;;;;;2.75;2.45;;;;;;;-1.27;100.00;101310.44;5112788;28;20066;-79
2021/04/17 07:04:49;;;;;;;3.10;2.90;;;;;;;-1.11;100.00;101302.94;5111996;28;20417;-79
2021/04/17 07:07:52;;;;;;;2.47;2.38;;;;;;;-1.05;100.00;101302.28;5111972;28;20059;-79
2021/04/17 07:10:58;;;;;;;2.53;2.33;;;;;;;-0.95;100.00;101306.38;5111915;28;20059;-79
2021/04/17 07:14:07;;;;;;;6.93;3.58;;;;;;;-0.81;100.00;101303.91;5111941;28;20062;-79
2021/04/17 07:17:11;;;;;;;8.23;3.15;;;;;;;-0.66;100.00;101305.72;5111963;28;20067;-79
2021/04/17 07:20:16;;;;;;;2.35;2.25;;;;;;;-0.53;100.00;101301.66;5102574;28;20066;-79
2021/04/17 07:23:31;;;;;;;5.13;4.45;;;;;;;-0.40;100.00;101311.28;5111491;28;20054;-79
2021/04/17 07:26:35;;;;;;;2.92;2.72;;;;;;;-0.27;100.00;101296.22;5112924;28;20054;-78
2021/04/17 07:29:41;;;;;;;2.83;2.25;;;;;;;-0.10;100.00;101301.19;5099237;28;20156;-78
2021/04/17 07:32:47;;;;;;;3.00;2.50;;;;;;;0.10;100.00;101301.06;5111298;28;20063;-79
2021/04/17 07:35:52;;;;;;;6.35;3.70;;;;;;;0.24;100.00;101301.28;5111835;28;20066;-79
2021/04/17 07:38:55;;;;;;;13.35;4.13;;;;;;;0.41;100.00;101293.28;5098296;28;20059;-79
2021/04/17 07:42:01;;;;;;;8.38;5.45;;;;;;;0.61;100.00;101289.25;5112195;28;20066;-80
2021/04/17 07:45:19;;;;;;;6.90;2.55;;;;;;;0.81;100.00;101287.13;5111997;28;20406;-80
2021/04/17 07:48:24;;;;;;;3.08;2.78;;;;;;;0.97;100.00;101289.66;5110230;28;20063;-80
2021/04/17 07:51:58;;;;;;;6.65;3.10;;;;;;;1.10;100.00;101282.75;5111467;28;20062;-80
2021/04/17 07:55:09;;;;;;;3.05;2.85;;;;;;;1.28;100.00;101287.22;5110696;28;20070;-79
2021/04/17 07:58:13;;;;;;;5.55;3.10;;;;;;;1.42;100.00;101290.13;5110891;28;20059;-79
2021/04/17 08:01:17;;;;;;;3.22;2.78;;;;;;;1.53;100.00;101284.72;5098855;28;20058;-79
2021/04/17 08:04:23;;;;;;;2.92;2.72;;;;;;;1.67;100.00;101284.81;5110453;28;20058;-79
2021/04/17 08:07:28;;;;;;;5.82;3.83;;;;;;;1.90;100.00;101282.66;5110885;28;20059;-79
2021/04/17 08:10:32;;;;;;;4.47;3.80;;;;;;;2.15;100.00;101283.59;5110998;28;20059;-79
2021/04/17 08:13:40;;;;;;;7.95;3.13;;;;;;;2.45;100.00;101280.63;5097767;28;20071;-79
2021/04/17 08:16:44;;;;;;;4.13;2.50;;;;;;;2.73;100.00;101280.72;5110594;28;20062;-80
2021/04/17 08:19:48;;;;;;;3.92;2.03;;;;;;;2.99;100.00;101277.66;5110434;28;20078;-80
2021/04/17 08:22:53;;;;;;;2.58;2.47;;;;;;;3.29;100.00;101273.81;5110570;28;20519;-80
2021/04/17 08:25:57;;;;;;;3.15;2.92;;;;;;;3.55;100.00;101270.69;5110778;28;20058;-79
2021/04/17 08:29:02;;;;;;;3.25;2.60;;;;;;;3.78;100.00;101265.53;5110625;28;20425;-80
2021/04/17 08:32:05;;;;;;;5.88;3.15;;;;;;;4.15;100.00;101265.88;5110446;28;20524;-79
2021/04/17 08:35:09;;;;;;;12.50;2.65;;;;;;;4.51;100.00;101261.81;5110379;28;20529;-79
2021/04/17 08:38:15;;;;;;;6.38;2.50;;;;;;;4.86;100.00;101254.56;5110077;28;20054;-80
2021/04/17 08:41:40;;;;;;;2.83;2.60;;;;;;;5.19;100.00;101257.53;5109589;28;20058;-79
2021/04/17 08:44:46;;;;;;;9.32;3.95;;;;;;;5.44;100.00;101259.31;5109708;28;20062;-79
2021/04/17 08:47:52;;;;;;;9.73;2.80;;;;;;;5.67;100.00;101254.78;5109860;28;20057;-79
2021/04/17 08:51:25;;;;;;;6.55;2.35;;;;;;;5.84;100.00;101253.88;5110025;28;20059;-79
2021/04/17 08:54:28;;;;;;;3.30;2.03;;;;;;;6.10;100.00;101255.19;5109365;28;20421;-77
2021/04/17 08:57:32;;;;;;;2.20;2.00;;;;;;;6.47;100.00;101255.19;5097462;28;20046;-79
2021/04/17 09:00:37;;;;;;;6.60;2.10;;;;;;;6.67;100.00;101249.81;5110272;28;20051;-80
2021/04/17 09:03:44;;;;;;;6.25;2.60;;;;;;;6.81;100.00;101244.84;5110054;28;20528;-80
2021/04/17 09:06:49;;;;;;;3.72;1.92;;;;;;;6.95;100.00;101241.13;5109056;28;20062;-81
2021/04/17 09:09:53;;;;;;;7.00;2.83;;;;;;;7.12;100.00;101242.84;5109535;28;20063;-78
2021/04/17 09:13:09;;;;;;;6.65;2.30;;;;;;;7.31;100.00;101247.69;5109684;28;20059;-82
2021/04/17 09:16:36;;;;;;;7.80;2.45;;;;;;;7.56;100.00;101245.31;5109578;28;20425;-83
2021/04/17 09:19:46;;;;;;;3.78;1.75;;;;;;;7.79;100.00;101246.50;5108782;28;20063;-80
2021/04/17 09:22:50;;;;;;;5.97;2.88;;;;;;;8.04;100.00;101241.28;5109686;28;20063;-79
2021/04/17 09:25:53;;;;;;;3.30;1.58;;;;;;;8.23;100.00;101235.78;5109702;28;20520;-80
2021/04/17 09:28:59;;;;;;;3.50;2.22;;;;;;;8.36;100.00;101225.63;5109503;28;20058;-80
2021/04/17 09:32:04;;;;;;;4.97;2.20;;;;;;;8.40;100.00;101225.59;5109518;28;20058;-80
2021/04/17 09:35:19;;;;;;;2.42;1.83;;;;;;;8.36;100.00;101230.41;5109066;28;20429;-80
2021/04/17 09:38:29;;;;;;;8.13;3.03;;;;;;;8.51;100.00;101219.81;5108866;28;20532;-80
2021/04/17 09:41:47;;;;;;;4.03;2.58;;;;;;;8.70;100.00;101227.34;5117911;28;20055;-80
2021/04/17 09:44:50;;;;;;;3.55;2.20;;;;;;;8.89;100.00;101224.53;5096722;28;20062;-80
2021/04/17 09:47:56;;;;;;;7.10;2.38;;;;;;;9.00;100.00;101225.06;5109125;28;20051;-80
2021/04/17 09:50:59;;;;;;;5.35;2.05;;;;;;;9.12;100.00;101227.16;5109151;28;20539;-81
2021/04/17 09:54:07;;;;;;;5.30;2.83;;;;;;;9.05;100.00;101216.19;5109779;28;20063;-79
2021/04/17 09:57:11;;;;;;;5.30;3.03;;;;;;;9.11;100.00;101222.03;5109208;28;20062;-80
2021/04/17 10:00:23;;;;;;;8.13;3.22;;;;;;;9.24;100.00;101211.03;5109070;28;20107;-80
2021/04/17 10:03:29;;;;;;;8.13;3.55;;;;;;;9.33;100.00;101211.19;5109179;28;20058;-80
2021/04/17 10:06:35;;;;;;;5.45;3.45;;;;;;;9.47;100.00;101208.84;5096760;28;20055;-77
2021/04/17 10:09:38;;;;;;;4.10;2.60;;;;;;;9.70;100.00;101210.66;5109413;28;20067;-79
2021/04/17 10:12:55;;;;;;;10.48;3.45;;;;;;;9.90;100.00;101214.88;5096580;28;20067;-79
2021/04/17 10:15:58;;;;;;;3.53;1.80;;;;;;;10.02;100.00;101205.03;5109107;28;20413;-79
2021/04/17 10:19:04;;;;;;;7.28;3.25;;;;;;;10.15;100.00;101202.34;5112848;28;20114;-79
2021/04/17 10:22:11;;;;;;;6.85;3.72;;;;;;;10.31;100.00;101202.28;5112655;28;20057;-79
2021/04/17 10:25:38;;;;;;;5.65;3.75;;;;;;;10.58;100.00;101189.53;5099743;28;20059;-79
2021/04/17 10:28:41;;;;;;;6.40;2.97;;;;;;;10.72;100.00;101193.13;5099647;28;20434;-78
2021/04/17 10:31:57;;;;;;;3.92;1.92;;;;;;;10.79;100.00;101187.31;5113840;28;20059;-78
2021/04/17 10:35:00;;;;;;;5.28;2.33;;;;;;;10.89;100.00;101178.66;5112719;28;20059;-78
2021/04/17 10:38:03;;;;;;;5.10;2.60;;;;;;;11.12;100.00;101185.88;5099859;28;20066;-78
2021/04/17 10:41:07;;;;;;;6.30;2.65;;;;;;;11.14;100.00;101183.44;5112360;28;20059;-79
2021/04/17 10:44:16;;;;;;;5.53;2.10;;;;;;;11.34;100.00;101181.19;5112291;28;20067;-78
2021/04/17 10:47:20;;;;;;;2.40;1.83;;;;;;;11.29;100.00;101171.38;5111841;28;20125;-80
2021/04/17 10:50:25;;;;;;;5.15;2.22;;;;;;;11.27;100.00;101161.88;5113278;28;20129;-80
2021/04/17 10:53:35;;;;;;;6.60;2.58;;;;;;;11.24;100.00;101165.59;5099949;28;20070;-79
2021/04/17 10:57:02;;;;;;;5.20;3.10;;;;;;;11.09;100.00;101164.47;5112393;28;20063;-79
2021/04/17 11:00:06;;;;;;;2.97;1.88;;;;;;;11.07;100.00;101161.34;5112174;28;20066;-81
2021/04/17 11:03:09;;;;;;;7.65;3.03;;;;;;;11.21;100.00;101156.09;5112755;28;20050;-80
2021/04/17 11:06:17;;;;;;;13.23;3.17;;;;;;;11.32;100.00;101150.97;5112027;28;20528;-79
2021/04/17 11:09:24;;;;;;;4.45;2.63;;;;;;;11.49;100.00;101148.78;5111420;28;20048;-78
2021/04/17 11:12:34;;;;;;;11.55;3.42;;;;;;;11.61;100.00;101134.00;5111938;28;20059;-79
2021/04/17 11:15:44;;;;;;;6.18;1.95;;;;;;;11.76;100.00;101143.47;5113035;28;20505;-79
2021/04/17 11:18:47;;;;;;;6.15;2.72;;;;;;;12.03;100.00;101143.72;5112744;28;20059;-79
2021/04/17 11:22:25;;;;;;;6.07;2.38;;;;;;;12.28;100.00;101130.84;5111717;28;20431;-79
2021/04/17 11:25:28;;;;;;;7.07;2.92;;;;;;;12.37;100.00;101136.47;5111218;28;20082;-79
2021/04/17 11:28:33;;;;;;;7.78;2.38;;;;;;;12.44;100.00;101123.00;5111175;28;20062;-78
2021/04/17 11:31:38;;;;;;;3.80;3.08;;;;;;;12.27;100.00;101129.28;5111957;28;20420;-78
2021/04/17 11:34:46;;;;;;;6.00;2.20;;;;;;;11.97;100.00;101128.78;5111263;28;20059;-79
2021/04/17 11:37:49;;;;;;;3.17;1.73;;;;;;;11.86;99.98;101122.78;5111271;28;20070;-81
2021/04/17 11:40:52;;;;;;;7.78;3.10;;;;;;;11.56;100.00;101129.03;5111538;28;20417;-80
2021/04/17 11:43:56;;;;;;;6.10;2.60;;;;;;;11.41;100.00;101125.16;5111882;28;20054;-79
2021/04/17 11:47:00;;;;;;;5.47;2.63;;;;;;;11.25;100.00;101116.94;5111844;28;20543;-78
2021/04/17 11:50:04;;;;;;;9.95;3.15;;;;;;;11.19;100.00;101118.75;5111295;28;20054;-79
2021/04/17 11:53:07;;;;;;;6.13;2.42;;;;;;;11.13;100.00;101117.75;5111152;28;20162;-78
2021/04/17 11:56:11;;;;;;;4.72;2.40;;;;;;;11.11;100.00;101120.22;5111319;28;20409;-81
2021/04/17 11:59:14;;;;;;;3.63;2.15;;;;;;;11.28;100.00;101124.41;5110854;28;20081;-83
2021/04/17 12:02:17;;;;;;;4.13;2.25;;;;;;;11.60;100.00;101121.31;5111077;28;20063;-83
2021/04/17 12:05:21;;;;;;;9.48;3.08;;;;;;;11.68;100.00;101114.28;5111107;28;20075;-81
2021/04/17 12:08:25;;;;;;;9.95;3.13;;;;;;;11.66;99.62;101102.75;5110843;28;20270;-82
2021/04/17 12:11:29;;;;;;;5.85;2.83;;;;;;;11.46;100.00;101119.00;5110829;28;20452;-82
2021/04/17 12:14:32;;;;;;;6.47;2.85;;;;;;;11.33;100.00;101112.66;5110846;28;20516;-81
2021/04/17 12:17:36;;;;;;;5.68;2.97;;;;;;;11.33;100.00;101116.25;5110460;28;20102;-80
2021/04/17 12:20:40;;;;;;;3.28;1.80;;;;;;;11.59;99.77;101100.22;5110574;28;20078;-81
2021/04/17 12:23:43;;;;;;;10.80;2.65;;;;;;;11.95;98.95;101108.88;5110487;28;20405;-80
2021/04/17 12:26:47;;;;;;;5.13;2.50;;;;;;;12.12;94.01;101096.31;5097769;28;20062;-80
2021/04/17 12:29:50;;;;;;;4.03;2.15;;;;;;;12.24;92.45;101096.66;5110182;28;20062;-79
2021/04/17 12:32:54;;;;;;;7.10;2.97;;;;;;;12.74;90.72;101099.09;5099703;28;20306;-79
2021/04/17 12:35:57;;;;;;;3.85;1.88;;;;;;;13.06;90.16;101089.44;5110256;28;20058;-80
2021/04/17 12:39:01;;;;;;;11.60;3.97;;;;;;;13.32;82.20;101080.28;5110179;28;20058;-80
2021/04/17 12:42:04;;;;;;;4.13;2.20;;;;;;;13.46;83.35;101073.31;5110797;28;20067;-85
2021/04/17 12:45:10;;;;;;;5.25;2.55;;;;;;;13.48;80.51;101082.81;5100654;28;20058;-86
2021/04/17 12:48:16;;;;;;;7.10;2.10;;;;;;;13.91;83.39;101078.13;5098799;28;20059;-82
2021/04/17 12:51:19;;;;;;;7.28;2.75;;;;;;;13.94;79.61;101085.59;5109980;28;20059;-86
2021/04/17 12:54:23;;;;;;;7.50;1.92;;;;;;;14.08;79.43;101079.31;5098115;28;20059;-89
2021/04/17 12:57:26;;;;;;;5.13;2.58;;;;;;;14.04;74.95;101078.72;5097950;28;20058;-85
2021/04/17 13:00:31;;;;;;;8.20;3.17;;;;;;;13.92;73.66;101071.28;5098721;28;20055;-83
2021/04/17 13:03:34;;;;;;;5.20;1.63;;;;;;;13.79;71.12;101065.84;5109636;28;20074;-84
2021/04/17 13:06:38;;;;;;;3.60;1.60;;;;;;;13.41;72.54;101071.91;5109820;28;20067;-80
2021/04/17 13:09:41;;;;;;;3.67;1.63;;;;;;;13.49;74.92;101067.56;5097185;28;20079;-83
2021/04/17 13:12:45;;;;;;;4.78;2.30;;;;;;;13.65;69.49;101060.88;5096944;28;20524;-80
2021/04/17 13:15:49;;;;;;;5.82;1.70;;;;;;;13.71;67.76;101049.84;5109736;28;20058;-81
2021/04/17 13:18:53;;;;;;;5.50;2.28;;;;;;;14.05;70.94;101049.47;5109299;28;20060;-84
2021/04/17 13:21:57;;;;;;;3.22;1.70;;;;;;;14.26;67.70;101045.66;5109469;28;20516;-81
2021/04/17 13:25:01;;;;;;;5.97;2.45;;;;;;;13.90;68.38;101040.16;5108064;28;20058;-83
2021/04/17 13:28:04;;;;;;;7.00;2.15;;;;;;;13.84;70.05;101030.84;5109542;28;20059;-82
2021/04/17 13:31:08;;;;;;;7.25;2.97;;;;;;;13.91;69.49;101031.28;5109854;28;20054;-79
2021/04/17 13:34:11;;;;;;;4.30;2.08;;;;;;;14.19;69.02;101029.97;5108937;28;20046;-81
2021/04/17 13:37:15;;;;;;;6.70;3.13;;;;;;;14.40;69.61;101039.44;5109346;28;20061;-81
2021/04/17 13:40:18;;;;;;;5.15;2.70;;;;;;;14.59;65.51;101029.69;5108761;28;20074;-80
2021/04/17 13:43:22;;;;;;;10.02;2.85;;;;;;;14.59;67.65;101023.31;5109310;28;20066;-81
2021/04/17 13:46:27;;;;;;;5.57;2.35;;;;;;;14.66;67.28;101012.50;5115797;28;20059;-82
2021/04/17 13:49:31;;;;;;;6.05;3.13;;;;;;;14.59;66.60;101006.47;5109380;28;20054;-79
2021/04/17 13:52:35;;;;;;;5.03;2.60;;;;;;;14.51;62.18;100999.69;5110700;28;20055;-78
2021/04/17 13:55:39;;;;;;;4.43;2.22;;;;;;;14.59;64.42;101001.66;5113618;28;20066;-78
2021/04/17 13:58:42;;;;;;;4.22;1.40;;;;;;;14.73;65.14;100989.72;5100533;28;20078;-80
2021/04/17 14:01:46;;;;;;;6.10;2.33;;;;;;;14.51;65.60;100994.81;5113787;28;20122;-79
2021/04/17 14:04:49;;;;;;;4.90;2.58;;;;;;;14.51;66.55;101000.44;5113223;28;20055;-79
2021/04/17 14:07:53;;;;;;;3.17;1.77;;;;;;;14.37;64.04;100987.13;5112906;28;20055;-79
2021/04/17 14:10:57;;;;;;;8.00;3.25;;;;;;;14.36;65.34;100982.75;5113314;28;20071;-79
2021/04/17 14:14:01;;;;;;;5.75;2.38;;;;;;;14.03;65.51;100982.72;5113139;28;20054;-80
2021/04/17 14:17:04;;;;;;;5.30;1.95;;;;;;;13.95;65.51;100981.50;5112855;28;20520;-81